LPPDLPHR

Guest
Details From LPPD - PONTA DELGADA
To LPHR - HORTA
Flight Number -
Tags generated
Created
Modified
Stats Distance 150 nm / 278 km
Max Altitude 14,600 ft / 4,450 m
Waypoints 5
Social Downloads 1
Likes 0
Share VATSIM

Download

Looking for another format? Having issues loading an existing format? Contact us
Advertisement - Login to hide

Notes

Basic altitude profile: - Ascent Rate: 1500ft/min - Ascent Speed: 230kts - Cruise Altitude: 15000ft - Cruise Speed: 260kts - Descent Rate: 1500ft/min - Descent Speed: 250kts Options: - Use NATs: yes - Use PACOTS: yes - Use low airways: yes - Use high airways: yes

Route

LPPD SOMUL H114 VFL LPHR

ID Type Via Altitude Latitude Longitude Leg Dist Tot Dist Heading (true) Name
O LPPD APT - 0 ft / 0 m 37.74208˚ -25.69774˚ - 0 nm - PONTA DELGADA
SOMUL FIX - 14,600 ft / 4,450 m 38.22250˚ -27.31694˚ 81 nm 81 nm 291° / 290° -
VFL25 FIX H114 (AWY-LO) 6,200 ft / 1,890 m 38.40511˚ -28.11316˚ 39 nm 120 nm 287° / 286° -
VFL VOR H114 (AWY-LO) 9,700 ft / 2,957 m 38.51942˚ -28.62356˚ 24 nm 145 nm 286° / 286° HORTA VORTAC
O LPHR APT - 0 ft / 0 m 38.51990˚ -28.71579˚ 4 nm 150 nm 270° / 270° HORTA

Altitude Profile

Advertisement - Login to hide

LPPD

Details ICAO LPPD (PDL)
Name PONTA DELGADA
Region Portugal
Timezone Atlantic/Azores (UTC-1.0)
Stats Elevation 259 ft / 79 m (AMSL)
Location 37.742078° -25.697736°
Runways 1
Magnetic Variation 8.360° W

METAR

LPPD 181830Z 17016KT 9999 FEW016 BKN035 19/15 Q1027

Decode

TAF

TAF LPPD 181700Z 1818/1918 18015KT 9999 SCT018 BKN030 BECMG 1906/1908 15010KT

Decode

Departure Runways

ID Width Length Bearing (true) Bearing (mag) Surface Threshold Offset Overrun Length
12 148 ft / 45 m 8,179 ft / 2,493 m 111.77° 120.13° Asphalt 0 ft / 0 m 375 ft / 114 m
30 148 ft / 45 m 8,179 ft / 2,493 m 291.79° 300.15° Asphalt 787 ft / 240 m 0 ft / 0 m

LPHR

Details ICAO LPHR (HOR)
Name HORTA
Region Portugal
Timezone Atlantic/Azores (UTC-1.0)
Stats Elevation 118 ft / 36 m (AMSL)
Location 38.519898° -28.715795°
Runways 1
Magnetic Variation 9.509° W

METAR

LPHR 181830Z 18012KT 9999 FEW014 SCT035 19/17 Q1023

Decode

TAF

Not found

Destination Runways

ID Width Length Bearing (true) Bearing (mag) Surface Threshold Offset Overrun Length
10 148 ft / 45 m 4,990 ft / 1,521 m 89.70° 99.21° Asphalt 0 ft / 0 m 180 ft / 55 m
28 148 ft / 45 m 4,990 ft / 1,521 m 269.71° 279.22° Asphalt 0 ft / 0 m 180 ft / 55 m

Popular Alternatives